createdAt,value
2022-09-02T00:02:00.379Z,2.50
2022-09-02T00:04:53.057Z,2.10
2022-09-02T00:07:45.272Z,2.50
2022-09-02T00:10:39.799Z,2.50
2022-09-02T00:13:32.590Z,2.47
2022-09-02T00:16:25.779Z,2.40
2022-09-02T00:19:19.062Z,2.77
2022-09-02T00:22:12.240Z,2.60
2022-09-02T00:25:04.626Z,2.50
2022-09-02T00:27:56.920Z,2.37
2022-09-02T00:30:49.351Z,2.43
2022-09-02T00:33:42.226Z,2.50
2022-09-02T00:36:34.589Z,2.70
2022-09-02T00:39:27.706Z,2.50
2022-09-02T00:42:20.214Z,2.47
2022-09-02T00:48:06.758Z,2.70
2022-09-02T00:50:58.993Z,2.40
2022-09-02T00:53:52.728Z,2.67
2022-09-02T00:56:46.742Z,2.63
2022-09-02T00:59:46.737Z,2.50
2022-09-02T01:02:42.333Z,2.43
2022-09-02T01:05:41.873Z,2.67
2022-09-02T01:08:39.492Z,2.98
2022-09-02T01:11:39.124Z,2.70
2022-09-02T01:14:31.407Z,2.67
2022-09-02T01:17:25.393Z,2.50
2022-09-02T01:20:21.415Z,2.90
2022-09-02T01:23:19.360Z,2.97
2022-09-02T01:26:12.092Z,2.60
2022-09-02T01:29:04.535Z,2.37
2022-09-02T01:31:57.402Z,3.00
2022-09-02T01:34:50.511Z,3.10
2022-09-02T01:37:43.122Z,3.10
2022-09-02T01:40:47.785Z,2.50
2022-09-02T01:43:40.055Z,2.97
2022-09-02T01:46:32.933Z,2.90
2022-09-02T01:49:25.473Z,3.17
2022-09-02T01:52:21.479Z,3.00
2022-09-02T01:55:14.501Z,3.03
2022-09-02T01:58:07.077Z,2.97
2022-09-02T02:00:59.759Z,3.13
2022-09-02T02:03:53.190Z,3.20
2022-09-02T02:06:48.825Z,2.90
2022-09-02T02:09:44.934Z,3.13
2022-09-02T02:12:40.884Z,3.07
2022-09-02T02:18:24.733Z,2.93
2022-09-02T02:21:16.750Z,3.20
2022-09-02T02:24:10.688Z,4.03
2022-09-02T02:27:02.877Z,4.47
2022-09-02T02:29:55.149Z,3.50
2022-09-02T02:32:49.169Z,3.10
2022-09-02T02:35:43.500Z,4.10
2022-09-02T02:38:36.635Z,2.77
2022-09-02T02:41:28.891Z,3.50
2022-09-02T02:44:22.428Z,3.10
2022-09-02T02:47:16.455Z,2.93
2022-09-02T02:50:12.445Z,2.83
2022-09-02T02:53:06.002Z,3.13
2022-09-02T02:55:58.228Z,3.10
2022-09-02T02:58:50.878Z,3.33
2022-09-02T03:01:43.478Z,3.20
2022-09-02T03:04:36.245Z,3.30
2022-09-02T03:07:29.631Z,3.13
2022-09-02T03:10:23.600Z,2.80
2022-09-02T03:13:16.077Z,3.53
2022-09-02T03:16:10.081Z,2.90
2022-09-02T03:19:03.126Z,3.00
2022-09-02T03:21:56.046Z,3.03
2022-09-02T03:24:48.803Z,2.90
2022-09-02T03:27:46.313Z,3.00
2022-09-02T03:30:40.696Z,3.20
2022-09-02T03:33:32.979Z,2.83
2022-09-02T03:39:17.540Z,2.70
2022-09-02T03:42:19.843Z,2.80
2022-09-02T03:45:16.208Z,2.50
2022-09-02T03:48:09.215Z,2.70
2022-09-02T03:51:03.333Z,3.17
2022-09-02T03:53:56.626Z,3.00
2022-09-02T03:56:49.237Z,2.67
2022-09-02T04:02:31.931Z,2.87
2022-09-02T04:05:26.729Z,2.67
2022-09-02T04:08:21.015Z,3.20
2022-09-02T04:11:17.966Z,3.13
2022-09-02T04:14:12.867Z,2.50
2022-09-02T04:17:05.657Z,2.60
2022-09-02T04:19:59.670Z,2.83
2022-09-02T04:22:53.209Z,2.90
2022-09-02T04:25:45.906Z,2.90
2022-09-02T04:28:40.602Z,2.80
2022-09-02T04:31:33.129Z,3.23
2022-09-02T04:34:26.096Z,3.23
2022-09-02T04:37:18.402Z,2.60
2022-09-02T04:40:13.063Z,3.23
2022-09-02T04:43:06.397Z,3.10
2022-09-02T04:45:58.761Z,2.83
2022-09-02T04:48:51.726Z,2.40
2022-09-02T04:51:44.540Z,2.53
2022-09-02T04:54:37.390Z,2.47
2022-09-02T04:57:30.940Z,2.37
2022-09-02T05:00:24.933Z,2.67
2022-09-02T05:03:19.374Z,2.60
2022-09-02T05:06:15.935Z,2.60
2022-09-02T05:09:09.401Z,2.87
2022-09-02T05:12:04.704Z,2.70
2022-09-02T05:15:08.780Z,2.50
2022-09-02T05:18:02.192Z,2.40
2022-09-02T05:20:58.172Z,2.57
2022-09-02T05:23:51.844Z,2.40
2022-09-02T05:26:47.939Z,2.40
2022-09-02T05:29:45.143Z,2.43
2022-09-02T05:32:38.861Z,2.50
2022-09-02T05:35:31.303Z,2.70
2022-09-02T05:38:27.256Z,2.63
2022-09-02T05:41:23.630Z,2.47
2022-09-02T05:44:17.670Z,2.30
2022-09-02T05:47:10.733Z,2.27
2022-09-02T05:50:03.203Z,2.73
2022-09-02T05:52:58.868Z,2.30
2022-09-02T05:55:52.626Z,2.23
2022-09-02T05:58:45.323Z,2.83
2022-09-02T06:01:38.870Z,2.60
2022-09-02T06:04:32.421Z,2.90
2022-09-02T06:07:26.651Z,2.50
2022-09-02T06:10:20.057Z,2.57
2022-09-02T06:13:12.664Z,2.47
2022-09-02T06:16:04.988Z,2.07
2022-09-02T06:18:58.203Z,2.17
2022-09-02T06:21:52.041Z,2.20
2022-09-02T06:24:45.632Z,2.63
2022-09-02T06:27:43.622Z,2.40
2022-09-02T06:30:40.103Z,2.27
2022-09-02T06:33:33.107Z,2.50
2022-09-02T06:36:28.522Z,2.77
2022-09-02T06:39:26.385Z,2.20
2022-09-02T06:42:21.045Z,2.10
2022-09-02T06:45:28.003Z,2.60
2022-09-02T06:48:21.326Z,2.17
2022-09-02T06:51:19.470Z,2.37
2022-09-02T06:54:15.944Z,2.40
2022-09-02T06:57:09.089Z,2.30
2022-09-02T07:00:02.276Z,2.70
2022-09-02T07:03:10.569Z,2.20
2022-09-02T07:06:11.028Z,2.50
2022-09-02T07:09:09.930Z,2.47
2022-09-02T07:12:06.335Z,2.37
2022-09-02T07:15:01.983Z,2.60
2022-09-02T07:17:58.204Z,2.13
2022-09-02T07:20:58.504Z,2.30
2022-09-02T07:23:51.141Z,2.33
2022-09-02T07:26:47.009Z,2.20
2022-09-02T07:29:41.707Z,2.53
2022-09-02T07:32:38.195Z,2.43
2022-09-02T07:35:32.076Z,2.40
2022-09-02T07:38:24.719Z,2.47
2022-09-02T07:41:18.108Z,2.23
2022-09-02T07:44:12.024Z,2.40
2022-09-02T07:47:04.610Z,2.30
2022-09-02T07:56:02.208Z,2.60
2022-09-02T07:58:54.357Z,3.07
2022-09-02T08:01:49.402Z,2.40
2022-09-02T08:04:43.961Z,2.30
2022-09-02T08:07:36.786Z,2.30
2022-09-02T08:10:29.839Z,2.40
2022-09-02T08:13:22.953Z,2.57
2022-09-02T08:16:20.418Z,2.20
2022-09-02T08:19:15.856Z,2.07
2022-09-02T08:22:08.707Z,2.40
2022-09-02T08:25:01.981Z,2.63
2022-09-02T08:30:45.338Z,2.37
2022-09-02T08:33:38.685Z,2.40
2022-09-02T08:36:32.151Z,2.30
2022-09-02T08:42:26.132Z,2.10
2022-09-02T08:45:24.134Z,2.70
2022-09-02T08:48:22.338Z,2.43
2022-09-02T08:51:23.550Z,2.90
2022-09-02T08:54:24.796Z,2.50
2022-09-02T08:57:16.928Z,2.47
2022-09-02T09:00:11.562Z,2.53
2022-09-02T09:03:10.927Z,2.60
2022-09-02T09:06:11.370Z,2.63
2022-09-02T09:09:16.087Z,2.52
2022-09-02T09:12:14.464Z,2.53
2022-09-02T09:15:12.826Z,2.73
2022-09-02T09:18:08.833Z,2.37
2022-09-02T09:21:00.745Z,2.33
2022-09-02T09:23:55.434Z,2.77
2022-09-02T09:26:49.475Z,2.80
2022-09-02T09:29:41.739Z,2.53
2022-09-02T09:32:38.561Z,2.27
2022-09-02T09:35:48.636Z,2.33
2022-09-02T09:38:40.441Z,2.55
2022-09-02T09:41:33.927Z,2.33
2022-09-02T09:44:49.490Z,2.70
2022-09-02T09:47:42.995Z,2.70
2022-09-02T09:50:35.402Z,2.93
2022-09-02T09:53:30.991Z,2.17
2022-09-02T09:56:37.381Z,2.30
2022-09-02T09:59:42.595Z,2.60
2022-09-02T10:02:36.643Z,2.93
2022-09-02T10:05:40.555Z,2.40
2022-09-02T10:08:33.548Z,2.43
2022-09-02T10:11:28.746Z,2.70
2022-09-02T10:14:21.317Z,2.23
2022-09-02T10:17:28.449Z,2.43
2022-09-02T10:20:27.196Z,2.63
2022-09-02T10:23:34.175Z,2.73
2022-09-02T10:26:38.499Z,2.70
2022-09-02T10:32:53.900Z,2.90
2022-09-02T10:35:50.396Z,2.70
2022-09-02T10:38:45.351Z,3.03
2022-09-02T10:44:58.354Z,2.50
2022-09-02T10:48:01.568Z,2.73
2022-09-02T10:50:57.401Z,2.67
2022-09-02T10:54:11.100Z,2.63
2022-09-02T10:57:11.458Z,3.03
2022-09-02T11:00:10.836Z,3.47
2022-09-02T11:03:14.467Z,2.30
2022-09-02T11:06:13.577Z,2.53
2022-09-02T11:09:14.233Z,2.80
2022-09-02T11:12:16.681Z,2.77
2022-09-02T11:15:20.348Z,2.55
2022-09-02T11:18:19.592Z,2.30
2022-09-02T11:21:31.683Z,2.63
2022-09-02T11:24:32.520Z,3.03
2022-09-02T11:27:43.024Z,2.57
2022-09-02T11:30:45.479Z,2.50
2022-09-02T11:33:47.734Z,2.40
2022-09-02T11:36:44.509Z,2.47
2022-09-02T11:39:54.021Z,2.50
2022-09-02T11:43:04.995Z,3.13
2022-09-02T11:46:23.952Z,2.70
2022-09-02T11:49:56.029Z,2.50
2022-09-02T11:53:01.791Z,2.23
2022-09-02T11:55:58.726Z,2.87
2022-09-02T11:58:52.699Z,3.10
2022-09-02T12:01:52.243Z,2.57
2022-09-02T12:05:01.487Z,2.30
2022-09-02T12:07:54.192Z,2.67
2022-09-02T12:11:05.011Z,2.80
2022-09-02T12:14:01.739Z,2.17
2022-09-02T12:17:05.827Z,2.40
2022-09-02T12:19:58.367Z,2.57
2022-09-02T12:22:50.450Z,2.27
2022-09-02T12:25:50.066Z,2.40
2022-09-02T12:28:44.353Z,2.60
2022-09-02T12:31:44.643Z,2.53
2022-09-02T12:35:08.194Z,2.40
2022-09-02T12:38:25.355Z,2.63
2022-09-02T12:41:27.892Z,2.40
2022-09-02T12:44:39.805Z,2.30
2022-09-02T12:47:39.751Z,2.65
2022-09-02T12:50:52.064Z,2.53
2022-09-02T12:53:51.524Z,2.40
2022-09-02T12:56:51.677Z,2.70
2022-09-02T12:59:46.028Z,2.20
2022-09-02T13:02:55.475Z,2.40
2022-09-02T13:05:59.597Z,2.30
2022-09-02T13:09:21.734Z,2.20
2022-09-02T13:15:55.628Z,2.73
2022-09-02T13:19:21.998Z,2.97
2022-09-02T13:22:56.436Z,2.53
2022-09-02T13:26:05.867Z,2.17
2022-09-02T13:29:34.557Z,2.37
2022-09-02T13:32:28.644Z,2.87
2022-09-02T13:35:26.226Z,2.33
2022-09-02T13:38:24.442Z,2.60
2022-09-02T13:41:31.259Z,2.83
2022-09-02T13:44:26.847Z,2.80
2022-09-02T13:47:21.553Z,2.13
2022-09-02T13:50:17.693Z,2.60
2022-09-02T13:56:30.950Z,2.70
2022-09-02T13:59:37.958Z,2.40
2022-09-02T14:02:32.628Z,2.73
2022-09-02T14:05:27.599Z,2.43
2022-09-02T14:08:23.147Z,2.33
2022-09-02T14:11:19.130Z,3.00
2022-09-02T14:14:14.956Z,2.73
2022-09-02T14:17:24.395Z,2.40
2022-09-02T14:20:27.097Z,3.10
2022-09-02T14:23:19.938Z,3.20
2022-09-02T14:26:12.226Z,3.40
2022-09-02T14:29:06.667Z,3.67
2022-09-02T14:32:15.962Z,3.63
2022-09-02T14:35:23.538Z,3.27
2022-09-02T14:38:26.524Z,2.90
2022-09-02T14:41:24.609Z,3.50
2022-09-02T14:44:23.155Z,3.10
2022-09-02T14:47:20.704Z,3.23
2022-09-02T14:50:17.979Z,3.03
2022-09-02T14:53:12.034Z,3.47
2022-09-02T14:56:03.939Z,3.60
2022-09-02T14:58:57.384Z,4.10
2022-09-02T15:01:51.918Z,4.17
2022-09-02T15:04:44.651Z,3.80
2022-09-02T15:07:37.119Z,3.50
2022-09-02T15:10:30.376Z,3.97
2022-09-02T15:13:32.605Z,3.53
2022-09-02T15:16:25.080Z,3.98
2022-09-02T15:19:17.656Z,3.60
2022-09-02T15:22:11.165Z,3.70
2022-09-02T15:25:04.833Z,4.20
2022-09-02T15:27:57.683Z,3.77
2022-09-02T15:30:50.575Z,3.83
2022-09-02T15:33:43.647Z,3.57
2022-09-02T15:36:35.771Z,3.43
2022-09-02T15:42:19.691Z,3.42
2022-09-02T15:45:13.167Z,3.80
2022-09-02T15:48:07.215Z,4.93
2022-09-02T15:50:59.154Z,4.47
2022-09-02T15:56:44.735Z,4.05
2022-09-02T15:59:37.873Z,3.90
2022-09-02T16:02:30.327Z,3.70
2022-09-02T16:05:25.426Z,3.90
2022-09-02T16:08:17.767Z,4.40
2022-09-02T16:11:12.588Z,3.70
2022-09-02T16:14:04.693Z,3.97
2022-09-02T16:16:57.576Z,3.70
2022-09-02T16:19:49.576Z,3.83
2022-09-02T16:22:42.212Z,4.17
2022-09-02T16:25:34.255Z,3.90
2022-09-02T16:31:20.239Z,3.63
2022-09-02T16:34:13.598Z,3.37
2022-09-02T16:37:06.272Z,2.90
2022-09-02T16:39:59.254Z,3.20
2022-09-02T16:42:52.006Z,3.17
2022-09-02T16:45:43.474Z,3.37
2022-09-02T16:48:35.934Z,3.60
2022-09-02T16:51:30.274Z,2.70
2022-09-02T16:54:30.774Z,3.47
2022-09-02T16:57:24.107Z,3.20
2022-09-02T17:03:11.115Z,3.20
2022-09-02T17:06:03.706Z,3.50
2022-09-02T17:08:55.924Z,3.60
2022-09-02T17:11:48.526Z,3.23
2022-09-02T17:14:40.709Z,3.20
2022-09-02T17:17:33.622Z,3.60
2022-09-02T17:20:26.309Z,3.30
2022-09-02T17:23:18.421Z,4.60
2022-09-02T17:29:01.423Z,3.53
2022-09-02T17:31:53.420Z,3.60
2022-09-02T17:34:46.234Z,3.50
2022-09-02T17:37:38.600Z,3.30
2022-09-02T17:40:48.042Z,3.60
2022-09-02T17:43:39.967Z,3.47
2022-09-02T17:46:32.721Z,2.90
2022-09-02T17:49:25.514Z,3.33
2022-09-02T17:52:21.088Z,3.83
2022-09-02T17:55:14.115Z,3.40
2022-09-02T17:58:17.436Z,3.60
2022-09-02T18:01:14.780Z,3.80
2022-09-02T18:04:22.391Z,3.40
2022-09-02T18:07:24.254Z,3.50
2022-09-02T18:10:17.717Z,4.50
2022-09-02T18:13:13.848Z,3.87
2022-09-02T18:16:20.904Z,4.37
2022-09-02T18:19:29.655Z,3.20
2022-09-02T18:22:39.748Z,4.03
2022-09-02T18:25:57.265Z,3.50
2022-09-02T18:28:56.666Z,3.43
2022-09-02T18:32:01.887Z,3.00
2022-09-02T18:35:03.981Z,3.50
2022-09-02T18:38:07.042Z,3.50
2022-09-02T18:41:17.301Z,3.30
2022-09-02T18:44:20.370Z,3.80
2022-09-02T18:47:18.978Z,3.37
2022-09-02T18:50:32.029Z,3.30
2022-09-02T18:53:30.282Z,3.37
2022-09-02T18:56:25.775Z,3.90
2022-09-02T18:59:25.973Z,3.50
2022-09-02T19:02:29.517Z,3.43
2022-09-02T19:05:25.666Z,3.43
2022-09-02T19:08:34.677Z,3.70
2022-09-02T19:11:27.557Z,3.40
2022-09-02T19:14:28.257Z,3.57
2022-09-02T19:17:20.101Z,3.20
2022-09-02T19:23:17.565Z,3.33
2022-09-02T19:26:10.217Z,3.40
2022-09-02T19:29:05.137Z,3.30
2022-09-02T19:31:57.934Z,3.70
2022-09-02T19:34:50.956Z,3.70
2022-09-02T19:37:44.979Z,3.73
2022-09-02T19:40:37.634Z,3.70
2022-09-02T19:43:29.343Z,3.85
2022-09-02T19:49:31.915Z,3.40
2022-09-02T19:55:22.778Z,3.57
2022-09-02T19:58:15.003Z,3.47
2022-09-02T20:01:08.308Z,3.67
2022-09-02T20:04:00.721Z,3.80
2022-09-02T20:09:49.814Z,3.50
2022-09-02T20:12:42.456Z,3.83
2022-09-02T20:15:37.542Z,4.17
2022-09-02T20:18:29.911Z,3.60
2022-09-02T20:21:27.543Z,3.93
2022-09-02T20:24:25.973Z,4.00
2022-09-02T20:27:30.265Z,3.97
2022-09-02T20:30:31.079Z,3.53
2022-09-02T20:33:26.621Z,3.97
2022-09-02T20:36:28.278Z,3.30
2022-09-02T20:39:40.469Z,3.67
2022-09-02T20:42:57.355Z,3.57
2022-09-02T20:45:56.889Z,4.10
2022-09-02T20:49:03.986Z,4.00
2022-09-02T20:52:03.770Z,4.53
2022-09-02T20:55:03.615Z,3.97
2022-09-02T20:58:20.294Z,4.10
2022-09-02T21:01:17.691Z,3.97
2022-09-02T21:04:28.656Z,4.07
2022-09-02T21:07:24.597Z,3.63
2022-09-02T21:10:27.054Z,3.80
2022-09-02T21:13:29.940Z,3.50
2022-09-02T21:16:34.535Z,4.00
2022-09-02T21:19:38.174Z,3.83
2022-09-02T21:22:36.348Z,4.00
2022-09-02T21:25:36.404Z,3.30
2022-09-02T21:28:36.129Z,4.63
2022-09-02T21:31:34.843Z,3.67
2022-09-02T21:34:30.455Z,3.77
2022-09-02T21:37:24.680Z,4.40
2022-09-02T21:43:52.027Z,4.20
2022-09-02T21:50:06.100Z,3.87
2022-09-02T21:53:27.748Z,4.17
2022-09-02T21:56:41.738Z,4.23
2022-09-02T21:59:54.606Z,4.73
2022-09-02T22:02:59.195Z,4.13
2022-09-02T22:06:00.380Z,4.13
2022-09-02T22:09:02.038Z,4.37
2022-09-02T22:12:01.639Z,4.60
2022-09-02T22:15:02.278Z,3.90
2022-09-02T22:18:00.384Z,3.73
2022-09-02T22:20:54.511Z,3.90
2022-09-02T22:23:46.904Z,4.13
2022-09-02T22:29:39.437Z,4.47
2022-09-02T22:32:37.654Z,4.40
2022-09-02T22:35:34.763Z,3.87
2022-09-02T22:38:30.672Z,4.00
2022-09-02T22:41:27.449Z,4.33
2022-09-02T22:44:24.148Z,3.77
2022-09-02T22:47:35.047Z,4.47
2022-09-02T22:50:54.929Z,4.17
2022-09-02T22:53:48.226Z,4.00
2022-09-02T22:56:43.803Z,4.20
2022-09-02T22:59:48.956Z,4.03
2022-09-02T23:02:49.476Z,4.10
2022-09-02T23:05:53.495Z,3.97
2022-09-02T23:08:49.135Z,4.27
2022-09-02T23:11:51.786Z,4.30
2022-09-02T23:14:50.768Z,3.95
2022-09-02T23:17:58.855Z,3.80
2022-09-02T23:21:01.678Z,4.93
2022-09-02T23:24:04.766Z,4.37
2022-09-02T23:27:07.035Z,4.40
2022-09-02T23:29:59.915Z,4.83
2022-09-02T23:33:15.272Z,4.60
2022-09-02T23:36:16.220Z,4.63
2022-09-02T23:39:31.930Z,4.33
2022-09-02T23:42:26.128Z,5.27
2022-09-02T23:45:23.959Z,5.27
2022-09-02T23:48:29.289Z,5.30
2022-09-02T23:51:33.811Z,4.43
2022-09-02T23:54:50.667Z,4.77
2022-09-02T23:58:00.683Z,4.80
